Kickapoo, Texas
Current Conditions -  °F | °C
As of 2:55 AM on Thursday 23 Oct 2014 (Local Time) from KPSN Reporting Station
Clear Clear  
Wind Chill: 64°   Ceiling: Unl
Heat Index: 64°   Visibility: 10mi
Dew Point: 54°   Wind: 7mph
Humidity: 68%   Direction: 100°E
Pressure: 30.13"   Gusts: NA
Location:  32.0056°N, 95.5543°W
Report Text: KPSN 230755Z AUTO 10006KT 10SM CLR 17/12 A3013 RMK AO2 T01800120
Loading
Personal Weather Stations






























Interactive Weather Map
Tropical Storm Tracking
New forecast layout! Learn more

10-Day Weather Forecast

Advertisements
Track Severe Weather on mobile